createdAt,value
2022-11-19T00:01:12.323Z,4.93
2022-11-19T00:03:40.628Z,5.65
2022-11-19T00:06:12.305Z,5.57
2022-11-19T00:08:39.916Z,7.00
2022-11-19T00:11:09.866Z,8.38
2022-11-19T00:13:37.928Z,4.70
2022-11-19T00:16:07.537Z,5.00
2022-11-19T00:18:34.889Z,4.55
2022-11-19T00:21:06.083Z,3.90
2022-11-19T00:23:33.317Z,5.68
2022-11-19T00:26:13.947Z,4.05
2022-11-19T00:28:41.658Z,3.17
2022-11-19T00:31:10.651Z,3.85
2022-11-19T00:33:38.512Z,5.50
2022-11-19T00:36:06.908Z,4.22
2022-11-19T00:38:34.370Z,3.70
2022-11-19T00:41:01.813Z,3.95
2022-11-19T00:43:47.525Z,5.03
2022-11-19T00:46:15.808Z,4.90
2022-11-19T00:48:43.064Z,6.25
2022-11-19T00:51:10.663Z,4.45
2022-11-19T00:53:37.909Z,4.75
2022-11-19T00:56:06.605Z,5.50
2022-11-19T00:58:33.912Z,5.28
2022-11-19T01:01:01.213Z,3.85
2022-11-19T01:03:28.736Z,4.10
2022-11-19T01:05:56.025Z,3.05
2022-11-19T01:08:23.323Z,3.53
2022-11-19T01:10:50.623Z,3.70
2022-11-19T01:13:36.495Z,4.10
2022-11-19T01:16:08.232Z,5.45
2022-11-19T01:18:36.397Z,4.75
2022-11-19T01:21:04.265Z,5.35
2022-11-19T01:23:31.990Z,4.43
2022-11-19T01:25:59.254Z,3.25
2022-11-19T01:28:26.500Z,4.00
2022-11-19T01:30:53.739Z,4.15
2022-11-19T01:33:22.678Z,4.47
2022-11-19T01:36:00.272Z,4.28
2022-11-19T01:38:28.031Z,4.53
2022-11-19T01:40:55.756Z,3.83
2022-11-19T01:43:41.512Z,3.67
2022-11-19T01:46:09.278Z,2.70
2022-11-19T01:48:38.169Z,2.88
2022-11-19T01:51:14.463Z,4.25
2022-11-19T01:53:41.900Z,5.90
2022-11-19T01:56:09.569Z,5.13
2022-11-19T01:58:43.149Z,4.97
2022-11-19T02:01:11.166Z,3.92
2022-11-19T02:03:39.178Z,4.70
2022-11-19T02:06:07.135Z,3.67
2022-11-19T02:08:45.144Z,3.55
2022-11-19T02:11:24.612Z,3.50
2022-11-19T02:14:04.949Z,3.30
2022-11-19T02:16:49.557Z,3.70
2022-11-19T02:19:35.375Z,4.45
2022-11-19T02:22:24.029Z,3.83
2022-11-19T02:24:53.445Z,4.57
2022-11-19T02:27:23.887Z,4.38
2022-11-19T02:30:00.491Z,3.78
2022-11-19T02:32:35.466Z,5.97
2022-11-19T02:35:07.017Z,3.30
2022-11-19T02:37:37.289Z,4.13
2022-11-19T02:40:07.830Z,4.35
2022-11-19T02:42:37.921Z,4.38
2022-11-19T02:45:11.274Z,4.13
2022-11-19T02:47:42.562Z,3.47
2022-11-19T02:50:12.494Z,5.38
2022-11-19T02:52:40.055Z,3.30
2022-11-19T02:55:07.568Z,3.97
2022-11-19T02:57:36.060Z,4.03
2022-11-19T03:00:24.742Z,4.03
2022-11-19T03:03:32.736Z,4.82
2022-11-19T03:06:01.631Z,4.50
2022-11-19T03:08:29.380Z,5.47
2022-11-19T03:11:06.996Z,3.42
2022-11-19T03:14:12.751Z,4.22
2022-11-19T03:16:41.678Z,4.38
2022-11-19T03:19:14.861Z,4.45
2022-11-19T03:21:48.419Z,3.90
2022-11-19T03:24:18.927Z,3.83
2022-11-19T03:26:49.095Z,4.00
2022-11-19T03:29:17.294Z,10.52
2022-11-19T03:31:48.541Z,3.30
2022-11-19T03:34:17.870Z,4.82
2022-11-19T03:36:46.895Z,4.57
2022-11-19T03:39:16.740Z,4.63
2022-11-19T03:41:46.621Z,4.00
2022-11-19T03:44:16.628Z,4.57
2022-11-19T03:46:45.176Z,4.50
2022-11-19T03:49:13.451Z,4.72
2022-11-19T03:51:40.691Z,4.47
2022-11-19T03:54:08.360Z,5.35
2022-11-19T03:56:37.845Z,5.05
2022-11-19T03:59:08.351Z,4.97
2022-11-19T04:04:22.729Z,6.97
2022-11-19T04:06:50.210Z,5.30
2022-11-19T04:09:17.834Z,4.72
2022-11-19T04:14:14.761Z,4.88
2022-11-19T04:16:42.017Z,6.50
2022-11-19T04:19:09.321Z,4.65
2022-11-19T04:21:36.597Z,4.95
2022-11-19T04:24:03.886Z,3.63
2022-11-19T04:26:31.128Z,4.72
2022-11-19T04:28:58.369Z,7.00
2022-11-19T04:31:25.632Z,5.15
2022-11-19T04:33:52.909Z,4.90
2022-11-19T04:36:20.198Z,5.35
2022-11-19T04:38:47.497Z,5.18
2022-11-19T04:41:14.727Z,6.55
2022-11-19T04:43:42.007Z,4.35
2022-11-19T04:46:09.266Z,5.15
2022-11-19T04:48:36.590Z,4.50
2022-11-19T04:51:03.865Z,4.80
2022-11-19T04:53:31.130Z,4.45
2022-11-19T04:55:58.375Z,4.93
2022-11-19T04:58:25.634Z,4.05
2022-11-19T05:00:53.283Z,5.75
2022-11-19T05:03:22.756Z,5.53
2022-11-19T05:05:50.003Z,4.38
2022-11-19T05:08:17.282Z,4.43
2022-11-19T05:10:44.860Z,5.57
2022-11-19T05:13:12.170Z,4.32
2022-11-19T05:15:39.429Z,4.13
2022-11-19T05:18:07.097Z,5.65
2022-11-19T05:20:34.425Z,4.82
2022-11-19T05:23:01.648Z,8.50
2022-11-19T05:25:28.985Z,5.25
2022-11-19T05:27:56.252Z,4.10
2022-11-19T05:30:23.505Z,5.53
2022-11-19T05:32:50.840Z,3.97
2022-11-19T05:35:18.177Z,5.20
2022-11-19T05:37:47.673Z,5.22
2022-11-19T05:40:15.167Z,6.63
2022-11-19T05:42:42.426Z,3.60
2022-11-19T05:45:10.040Z,5.55
2022-11-19T05:47:37.389Z,4.50
2022-11-19T05:50:05.280Z,4.20
2022-11-19T05:52:32.532Z,3.47
2022-11-19T05:54:59.801Z,4.93
2022-11-19T05:57:27.065Z,3.88
2022-11-19T05:59:54.379Z,4.85
2022-11-19T06:02:21.704Z,4.10
2022-11-19T06:04:49.010Z,4.70
2022-11-19T06:07:16.379Z,5.38
2022-11-19T06:09:43.727Z,7.63
2022-11-19T06:12:10.985Z,4.78
2022-11-19T06:14:38.257Z,7.25
2022-11-19T06:17:05.597Z,3.67
2022-11-19T06:19:32.945Z,4.32
2022-11-19T06:22:00.252Z,5.22
2022-11-19T06:24:27.638Z,5.20
2022-11-19T06:26:54.872Z,4.88
2022-11-19T06:29:22.463Z,4.75
2022-11-19T06:31:49.960Z,7.63
2022-11-19T06:34:17.247Z,4.65
2022-11-19T06:36:50.107Z,8.95
2022-11-19T06:39:18.166Z,4.97
2022-11-19T06:41:48.802Z,6.22
2022-11-19T06:44:16.218Z,6.40
2022-11-19T06:46:43.494Z,13.07
2022-11-19T06:49:14.276Z,19.70
2022-11-19T06:51:44.193Z,6.50
2022-11-19T06:54:11.436Z,9.55
2022-11-19T06:56:38.655Z,6.40
2022-11-19T06:59:05.938Z,8.48
2022-11-19T07:01:33.251Z,6.97
2022-11-19T07:04:00.524Z,17.30
2022-11-19T07:06:27.773Z,11.77
2022-11-19T07:08:55.023Z,11.63
2022-11-19T07:11:28.677Z,9.88
2022-11-19T07:14:00.065Z,7.03
2022-11-19T07:16:29.329Z,5.57
2022-11-19T07:19:00.467Z,4.60
2022-11-19T07:21:28.763Z,7.38
2022-11-19T07:23:56.514Z,18.80
2022-11-19T07:26:24.047Z,11.00
2022-11-19T07:28:51.492Z,12.18
2022-11-19T07:31:18.715Z,9.25
2022-11-19T07:33:45.992Z,13.35
2022-11-19T07:36:18.130Z,4.53
2022-11-19T07:38:45.824Z,17.20
2022-11-19T07:41:31.494Z,15.73
2022-11-19T07:43:58.828Z,14.68
2022-11-19T07:46:26.070Z,14.40
2022-11-19T07:48:57.464Z,5.13
2022-11-19T07:51:25.397Z,4.65
2022-11-19T07:53:52.715Z,3.67
2022-11-19T07:56:20.714Z,6.75
2022-11-19T07:58:48.184Z,3.55
2022-11-19T08:01:20.007Z,9.63
2022-11-19T08:03:51.847Z,26.70
2022-11-19T08:06:25.292Z,9.35
2022-11-19T08:08:52.669Z,6.75
2022-11-19T08:11:19.974Z,8.35
2022-11-19T08:13:47.293Z,4.68
2022-11-19T08:16:36.013Z,5.20
2022-11-19T08:19:03.710Z,9.25
2022-11-19T08:21:31.010Z,15.23
2022-11-19T08:23:58.268Z,4.80
2022-11-19T08:26:25.532Z,9.95
2022-11-19T08:28:52.748Z,8.60
2022-11-19T08:31:20.012Z,9.80
2022-11-19T08:33:47.275Z,10.68
2022-11-19T08:36:14.546Z,7.78
2022-11-19T08:38:41.876Z,17.35
2022-11-19T08:41:28.693Z,11.68
2022-11-19T08:43:55.960Z,18.42
2022-11-19T08:46:23.216Z,8.13
2022-11-19T08:48:50.639Z,6.90
2022-11-19T08:51:18.183Z,4.88
2022-11-19T08:53:45.552Z,8.05
2022-11-19T08:56:16.846Z,10.27
2022-11-19T08:58:45.479Z,4.90
2022-11-19T09:01:13.521Z,6.53
2022-11-19T09:03:43.329Z,26.17
2022-11-19T09:06:10.988Z,11.70
2022-11-19T09:08:38.265Z,5.88
2022-11-19T09:11:13.135Z,5.57
2022-11-19T09:13:40.665Z,6.43
2022-11-19T09:16:08.626Z,4.40
2022-11-19T09:18:39.119Z,6.45
2022-11-19T09:21:07.262Z,5.88
2022-11-19T09:23:34.525Z,6.50
2022-11-19T09:26:02.894Z,6.05
2022-11-19T09:28:30.650Z,6.82
2022-11-19T09:30:57.900Z,18.73
2022-11-19T09:33:25.599Z,19.23
2022-11-19T09:35:53.017Z,4.22
2022-11-19T09:38:21.223Z,5.50
2022-11-19T09:40:58.079Z,4.47
2022-11-19T09:43:44.224Z,6.72
2022-11-19T09:46:18.278Z,5.47
2022-11-19T09:48:45.788Z,5.30
2022-11-19T09:51:17.709Z,5.15
2022-11-19T09:53:47.959Z,3.83
2022-11-19T09:56:17.602Z,3.92
2022-11-19T09:58:45.468Z,5.70
2022-11-19T10:01:18.091Z,4.38
2022-11-19T10:03:48.050Z,5.30
2022-11-19T10:06:15.281Z,3.63
2022-11-19T10:08:48.533Z,5.00
2022-11-19T10:11:29.914Z,4.95
2022-11-19T10:14:06.252Z,7.28
2022-11-19T10:16:41.616Z,4.22
2022-11-19T10:19:34.186Z,5.20
2022-11-19T10:22:13.643Z,4.88
2022-11-19T10:24:40.911Z,5.60
2022-11-19T10:27:16.541Z,6.50
2022-11-19T10:29:44.335Z,6.40
2022-11-19T10:32:17.771Z,6.45
2022-11-19T10:34:46.134Z,5.35
2022-11-19T10:37:15.856Z,6.72
2022-11-19T10:39:48.912Z,3.47
2022-11-19T10:42:22.101Z,4.32
2022-11-19T10:45:08.036Z,5.60
2022-11-19T10:47:44.592Z,5.18
2022-11-19T10:50:19.432Z,4.38
2022-11-19T10:52:50.751Z,3.72
2022-11-19T10:55:18.138Z,3.80
2022-11-19T10:57:47.141Z,4.28
2022-11-19T11:00:14.849Z,4.70
2022-11-19T11:02:47.873Z,5.97
2022-11-19T11:05:16.750Z,8.25
2022-11-19T11:07:51.869Z,5.05
2022-11-19T11:10:26.956Z,7.72
2022-11-19T11:13:13.681Z,5.53
2022-11-19T11:15:50.705Z,6.20
2022-11-19T11:18:19.149Z,6.95
2022-11-19T11:20:50.675Z,6.47
2022-11-19T11:23:19.183Z,4.10
2022-11-19T11:25:55.799Z,6.45
2022-11-19T11:28:25.411Z,4.45
2022-11-19T11:30:54.405Z,5.32
2022-11-19T11:33:38.721Z,6.70
2022-11-19T11:36:06.157Z,8.73
2022-11-19T11:38:33.682Z,8.73
2022-11-19T11:41:53.416Z,7.35
2022-11-19T11:44:01.458Z,6.13
2022-11-19T11:46:45.370Z,6.30
2022-11-19T11:49:29.379Z,7.22
2022-11-19T11:52:08.362Z,9.95
2022-11-19T11:54:36.146Z,7.45
2022-11-19T11:57:09.955Z,6.00
2022-11-19T11:59:38.239Z,5.63
2022-11-19T12:02:07.096Z,4.75
2022-11-19T12:04:34.906Z,4.93
2022-11-19T12:07:17.134Z,8.10
2022-11-19T12:09:53.704Z,6.00
2022-11-19T12:12:20.984Z,8.27
2022-11-19T12:14:51.296Z,6.32
2022-11-19T12:17:18.627Z,7.30
2022-11-19T12:20:04.034Z,7.07
2022-11-19T12:23:00.985Z,9.80
2022-11-19T12:25:28.244Z,6.38
2022-11-19T12:28:02.659Z,6.85
2022-11-19T12:30:39.777Z,7.07
2022-11-19T12:33:23.702Z,6.57
2022-11-19T12:36:09.066Z,6.10
2022-11-19T12:38:39.291Z,8.85
2022-11-19T12:41:25.209Z,6.32
2022-11-19T12:43:54.537Z,6.10
2022-11-19T12:46:30.849Z,7.07
2022-11-19T12:49:18.958Z,5.47
2022-11-19T12:51:58.947Z,5.55
2022-11-19T12:54:33.372Z,6.85
2022-11-19T12:57:20.709Z,7.07
2022-11-19T12:59:50.849Z,9.50
2022-11-19T13:02:27.861Z,4.45
2022-11-19T13:05:01.828Z,5.50
2022-11-19T13:07:35.411Z,5.28
2022-11-19T13:10:08.264Z,4.20
2022-11-19T13:12:43.668Z,3.75
2022-11-19T13:15:23.160Z,4.05
2022-11-19T13:17:55.105Z,8.00
2022-11-19T13:20:32.450Z,4.95
2022-11-19T13:23:21.158Z,6.45
2022-11-19T13:25:56.921Z,7.50
2022-11-19T13:28:36.954Z,5.18
2022-11-19T13:31:07.962Z,6.03
2022-11-19T13:33:40.411Z,7.03
2022-11-19T13:36:19.668Z,9.32
2022-11-19T13:38:55.872Z,8.63
2022-11-19T13:41:34.778Z,7.68
2022-11-19T13:44:20.975Z,10.13
2022-11-19T13:46:50.890Z,6.47
2022-11-19T13:49:36.913Z,7.60
2022-11-19T13:52:12.076Z,6.43
2022-11-19T13:54:40.538Z,6.03
2022-11-19T13:57:08.942Z,6.40
2022-11-19T13:59:40.929Z,7.22
2022-11-19T14:02:11.318Z,5.93
2022-11-19T14:04:49.024Z,7.78
2022-11-19T14:07:45.599Z,6.28
2022-11-19T14:10:21.774Z,6.30
2022-11-19T14:13:09.237Z,6.53
2022-11-19T14:16:01.155Z,9.13
2022-11-19T14:18:54.363Z,8.05
2022-11-19T14:21:43.412Z,6.63
2022-11-19T14:24:49.643Z,7.63
2022-11-19T14:27:24.437Z,9.32
2022-11-19T14:29:53.937Z,12.40
2022-11-19T14:32:29.874Z,14.63
2022-11-19T14:35:02.980Z,9.85
2022-11-19T14:37:30.225Z,10.88
2022-11-19T14:40:00.517Z,13.25
2022-11-19T14:42:27.943Z,12.15
2022-11-19T14:45:04.178Z,15.18
2022-11-19T14:47:39.129Z,15.57
2022-11-19T14:50:09.424Z,12.48
2022-11-19T14:53:03.045Z,13.52
2022-11-19T14:55:31.185Z,10.77
2022-11-19T14:57:58.670Z,13.60
2022-11-19T15:00:28.858Z,13.25
2022-11-19T15:02:58.827Z,12.48
2022-11-19T15:05:34.285Z,9.77
2022-11-19T15:08:19.875Z,10.32
2022-11-19T15:11:02.529Z,10.07
2022-11-19T15:13:33.522Z,10.70
2022-11-19T15:16:07.575Z,12.13
2022-11-19T15:18:41.026Z,13.35
2022-11-19T15:21:08.368Z,13.13
2022-11-19T15:23:39.256Z,15.20
2022-11-19T15:26:20.081Z,16.60
2022-11-19T15:31:14.452Z,13.95
2022-11-19T15:33:47.913Z,15.75
2022-11-19T15:36:21.394Z,12.18
2022-11-19T15:39:03.800Z,12.73
2022-11-19T15:41:37.913Z,14.65
2022-11-19T15:44:07.954Z,15.85
2022-11-19T15:46:51.268Z,12.88
2022-11-19T15:49:25.937Z,15.48
2022-11-19T15:52:17.933Z,13.80
2022-11-19T15:54:45.844Z,13.25
2022-11-19T15:57:15.914Z,18.13
2022-11-19T15:59:44.763Z,12.20
2022-11-19T16:02:19.446Z,12.77
2022-11-19T16:04:49.324Z,13.30
2022-11-19T16:07:18.082Z,10.40
2022-11-19T16:09:45.410Z,13.82
2022-11-19T16:12:39.047Z,15.35
2022-11-19T16:15:38.478Z,11.32
2022-11-19T16:18:12.694Z,11.63
2022-11-19T16:20:40.131Z,12.82
2022-11-19T16:23:08.506Z,11.45
2022-11-19T16:25:39.899Z,12.95
2022-11-19T16:28:08.908Z,12.90
2022-11-19T16:34:02.486Z,13.68
2022-11-19T16:36:32.276Z,12.82
2022-11-19T16:38:59.722Z,15.73
2022-11-19T16:41:46.014Z,17.05
2022-11-19T16:44:15.038Z,14.95
2022-11-19T16:46:42.318Z,13.70
2022-11-19T16:49:30.037Z,14.35
2022-11-19T16:51:58.149Z,9.63
2022-11-19T16:54:47.342Z,12.85
2022-11-19T16:57:16.041Z,12.05
2022-11-19T16:59:46.572Z,13.40
2022-11-19T17:02:16.104Z,11.45
2022-11-19T17:04:50.740Z,14.13
2022-11-19T17:07:25.526Z,9.57
2022-11-19T17:10:08.661Z,8.55
2022-11-19T17:12:36.483Z,13.30
2022-11-19T17:15:24.243Z,12.25
2022-11-19T17:17:52.675Z,11.57
2022-11-19T17:20:32.250Z,9.65
2022-11-19T17:23:00.392Z,11.27
2022-11-19T17:25:27.796Z,11.02
2022-11-19T17:27:56.790Z,8.15
2022-11-19T17:30:25.263Z,9.32
2022-11-19T17:32:57.815Z,8.63
2022-11-19T17:35:36.835Z,9.20
2022-11-19T17:38:10.162Z,12.68
2022-11-19T17:40:37.459Z,12.32
2022-11-19T17:43:27.959Z,10.15
2022-11-19T17:45:55.300Z,12.48
2022-11-19T17:48:23.783Z,10.40
2022-11-19T17:50:54.593Z,9.85
2022-11-19T17:55:50.327Z,10.25
2022-11-19T17:58:17.625Z,8.52
2022-11-19T18:00:44.961Z,9.23
2022-11-19T18:03:18.085Z,11.57
2022-11-19T18:05:49.657Z,12.90
2022-11-19T18:08:17.313Z,14.18
2022-11-19T18:10:45.867Z,20.40
2022-11-19T18:13:14.568Z,11.50
2022-11-19T18:15:41.965Z,10.18
2022-11-19T18:18:09.225Z,11.57
2022-11-19T18:20:37.580Z,9.27
2022-11-19T18:23:05.165Z,10.05
2022-11-19T18:25:32.478Z,11.57
2022-11-19T18:27:59.803Z,13.55
2022-11-19T18:30:27.110Z,10.38
2022-11-19T18:32:54.433Z,9.32
2022-11-19T18:35:22.690Z,10.52
2022-11-19T18:37:49.995Z,8.68
2022-11-19T18:40:17.404Z,11.18
2022-11-19T18:43:13.973Z,10.60
2022-11-19T18:45:41.225Z,12.63
2022-11-19T18:48:08.558Z,11.35
2022-11-19T18:50:35.924Z,11.05
2022-11-19T18:53:03.228Z,9.50
2022-11-19T18:55:30.486Z,12.63
2022-11-19T18:57:57.742Z,14.55
2022-11-19T19:00:25.083Z,14.23
2022-11-19T19:02:52.399Z,12.52
2022-11-19T19:05:19.693Z,13.38
2022-11-19T19:07:47.354Z,13.07
2022-11-19T19:10:14.687Z,10.48
2022-11-19T19:12:43.114Z,12.07
2022-11-19T19:15:10.617Z,10.80
2022-11-19T19:17:37.920Z,11.02
2022-11-19T19:20:05.865Z,11.95
2022-11-19T19:22:33.212Z,12.48
2022-11-19T19:25:00.634Z,11.48
2022-11-19T19:27:27.959Z,11.85
2022-11-19T19:29:55.360Z,13.60
2022-11-19T19:32:22.873Z,14.40
2022-11-19T19:34:50.508Z,11.10
2022-11-19T19:37:17.746Z,11.77
2022-11-19T19:39:45.036Z,9.90
2022-11-19T19:42:12.372Z,14.48
2022-11-19T19:44:39.625Z,11.13
2022-11-19T19:47:06.973Z,12.32
2022-11-19T19:49:38.549Z,11.98
2022-11-19T19:52:06.361Z,11.38
2022-11-19T19:54:33.633Z,11.32
2022-11-19T19:57:00.899Z,14.43
2022-11-19T19:59:28.133Z,12.23
2022-11-19T20:01:55.508Z,11.75
2022-11-19T20:04:22.867Z,11.00
2022-11-19T20:06:51.811Z,11.52
2022-11-19T20:09:19.209Z,11.55
2022-11-19T20:11:46.528Z,10.02
2022-11-19T20:14:13.836Z,10.27
2022-11-19T20:16:41.791Z,9.90
2022-11-19T20:19:12.300Z,10.55
2022-11-19T20:21:39.626Z,10.95
2022-11-19T20:24:25.715Z,10.07
2022-11-19T20:26:52.979Z,9.45
2022-11-19T20:29:22.135Z,11.30
2022-11-19T20:31:50.554Z,9.55
2022-11-19T20:34:18.278Z,11.45
2022-11-19T20:36:45.622Z,9.32
2022-11-19T20:39:13.234Z,9.90
2022-11-19T20:41:59.236Z,12.13
2022-11-19T20:44:26.508Z,10.90
2022-11-19T20:46:57.842Z,13.68
2022-11-19T20:49:28.908Z,12.90
2022-11-19T20:51:56.788Z,10.15
2022-11-19T20:54:24.370Z,10.50
2022-11-19T20:56:52.417Z,9.02
2022-11-19T20:59:20.140Z,9.65
2022-11-19T21:01:49.342Z,11.30
2022-11-19T21:04:17.038Z,10.73
2022-11-19T21:06:44.308Z,10.52
2022-11-19T21:09:13.076Z,9.07
2022-11-19T21:11:40.362Z,9.90
2022-11-19T21:14:07.919Z,8.32
2022-11-19T21:16:35.366Z,9.50
2022-11-19T21:19:03.425Z,8.40
2022-11-19T21:21:30.716Z,9.52
2022-11-19T21:23:58.146Z,8.73
2022-11-19T21:26:26.377Z,8.75
2022-11-19T21:28:54.477Z,9.82
2022-11-19T21:31:23.860Z,12.20
2022-11-19T21:33:51.112Z,9.52
2022-11-19T21:36:18.493Z,9.15
2022-11-19T21:38:45.759Z,9.13
2022-11-19T21:41:13.053Z,8.85
2022-11-19T21:43:40.388Z,10.70
2022-11-19T21:46:08.060Z,10.15
2022-11-19T21:48:38.241Z,11.38
2022-11-19T21:51:08.992Z,9.60
2022-11-19T21:53:36.547Z,10.93
2022-11-19T21:56:03.957Z,11.40
2022-11-19T21:58:31.447Z,9.88
2022-11-19T22:00:59.866Z,10.98
2022-11-19T22:03:27.677Z,13.95
2022-11-19T22:06:01.521Z,11.60
2022-11-19T22:08:29.985Z,11.93
2022-11-19T22:10:57.483Z,9.90
2022-11-19T22:13:25.051Z,12.00
2022-11-19T22:16:00.054Z,11.85
2022-11-19T22:18:27.309Z,13.85
2022-11-19T22:21:01.750Z,11.18
2022-11-19T22:23:29.031Z,11.65
2022-11-19T22:25:56.415Z,11.20
2022-11-19T22:28:23.792Z,11.25
2022-11-19T22:30:54.541Z,11.13
2022-11-19T22:35:48.996Z,10.02
2022-11-19T22:38:16.571Z,11.07
2022-11-19T22:40:43.906Z,11.10
2022-11-19T22:43:11.172Z,10.95
2022-11-19T22:45:38.417Z,11.43
2022-11-19T22:48:05.767Z,13.93
2022-11-19T22:50:34.072Z,13.60
2022-11-19T22:53:01.346Z,11.25
2022-11-19T22:55:28.607Z,9.20
2022-11-19T22:57:55.883Z,10.55
2022-11-19T23:00:42.942Z,16.50
2022-11-19T23:03:10.676Z,12.13
2022-11-19T23:05:38.256Z,10.52
2022-11-19T23:08:06.248Z,8.55
2022-11-19T23:10:33.808Z,10.13
2022-11-19T23:13:20.330Z,8.25
2022-11-19T23:15:59.848Z,11.20
2022-11-19T23:18:28.378Z,9.63
2022-11-19T23:20:59.526Z,8.10
2022-11-19T23:25:57.781Z,9.10
2022-11-19T23:28:29.340Z,9.18
2022-11-19T23:30:56.627Z,10.00
2022-11-19T23:33:24.154Z,10.73
2022-11-19T23:35:51.477Z,9.02
2022-11-19T23:38:18.741Z,9.20
2022-11-19T23:40:46.252Z,10.88
2022-11-19T23:43:13.586Z,17.98
2022-11-19T23:45:40.847Z,17.98
2022-11-19T23:48:08.832Z,16.17
2022-11-19T23:50:36.073Z,8.93
2022-11-19T23:53:03.301Z,9.68
2022-11-19T23:55:30.668Z,9.52
2022-11-19T23:57:58.401Z,8.63
